createdAt,value
2023-01-30T00:01:43.425Z,33.85
2023-01-30T00:04:17.160Z,38.63
2023-01-30T00:06:44.436Z,39.03
2023-01-30T00:09:14.859Z,39.13
2023-01-30T00:11:42.390Z,34.33
2023-01-30T00:14:09.549Z,35.55
2023-01-30T00:16:36.272Z,34.83
2023-01-30T00:19:03.440Z,36.22
2023-01-30T00:21:30.246Z,41.95
2023-01-30T00:23:56.946Z,33.92
2023-01-30T00:26:23.594Z,32.30
2023-01-30T00:28:50.262Z,33.70
2023-01-30T00:31:16.925Z,36.17
2023-01-30T00:33:43.745Z,34.75
2023-01-30T00:36:10.924Z,34.13
2023-01-30T00:38:37.676Z,35.90
2023-01-30T00:41:07.071Z,35.53
2023-01-30T00:43:52.145Z,37.88
2023-01-30T00:46:53.919Z,34.10
2023-01-30T00:49:21.159Z,36.25
2023-01-30T00:51:48.615Z,33.88
2023-01-30T00:54:16.342Z,37.40
2023-01-30T00:56:43.049Z,36.20
2023-01-30T00:59:09.692Z,38.25
2023-01-30T01:01:37.623Z,29.73
2023-01-30T01:04:06.393Z,34.80
2023-01-30T01:06:32.984Z,33.25
2023-01-30T01:08:59.659Z,34.13
2023-01-30T01:11:26.716Z,37.35
2023-01-30T01:14:00.180Z,37.97
2023-01-30T01:16:29.884Z,31.92
2023-01-30T01:18:58.675Z,37.50
2023-01-30T01:21:25.379Z,32.53
2023-01-30T01:23:59.772Z,34.75
2023-01-30T01:26:27.730Z,36.20
2023-01-30T01:28:58.624Z,34.60
2023-01-30T01:31:26.023Z,34.05
2023-01-30T01:33:54.923Z,34.00
2023-01-30T01:36:51.738Z,37.88
2023-01-30T01:39:09.358Z,37.75
2023-01-30T01:41:35.942Z,36.33
2023-01-30T01:44:11.736Z,37.38
2023-01-30T01:46:53.597Z,37.03
2023-01-30T01:49:33.592Z,32.42
2023-01-30T01:52:05.165Z,36.85
2023-01-30T01:54:43.214Z,36.60
2023-01-30T01:57:23.228Z,33.70
2023-01-30T02:00:02.030Z,34.92
2023-01-30T02:02:28.730Z,34.67
2023-01-30T02:05:06.607Z,34.58
2023-01-30T02:07:52.236Z,32.72
2023-01-30T02:10:30.480Z,32.72
2023-01-30T02:12:57.064Z,35.80
2023-01-30T02:15:23.667Z,34.95
2023-01-30T02:17:50.334Z,33.88
2023-01-30T02:20:23.501Z,38.30
2023-01-30T02:23:37.757Z,39.65
2023-01-30T02:26:28.652Z,37.83
2023-01-30T02:29:35.659Z,34.42
2023-01-30T02:32:20.633Z,38.10
2023-01-30T02:35:25.783Z,35.40
2023-01-30T02:38:19.182Z,33.63
2023-01-30T02:41:02.588Z,34.15
2023-01-30T02:43:57.101Z,28.55
2023-01-30T02:46:53.607Z,29.55
2023-01-30T02:49:48.502Z,26.73
2023-01-30T02:52:17.485Z,31.33
2023-01-30T02:54:45.823Z,34.22
2023-01-30T02:57:22.889Z,33.08
2023-01-30T03:00:01.299Z,27.85
2023-01-30T03:03:09.228Z,33.97
2023-01-30T03:05:57.153Z,33.30
2023-01-30T03:08:51.140Z,31.60
2023-01-30T03:11:18.251Z,27.45
2023-01-30T03:13:48.579Z,28.42
2023-01-30T03:16:28.184Z,30.02
2023-01-30T03:18:55.130Z,32.63
2023-01-30T03:21:21.790Z,35.15
2023-01-30T03:23:50.881Z,30.63
2023-01-30T03:26:22.991Z,29.55
2023-01-30T03:28:52.830Z,31.55
2023-01-30T03:31:20.036Z,30.52
2023-01-30T03:33:46.735Z,31.05
2023-01-30T03:36:14.038Z,29.83
2023-01-30T03:38:40.766Z,27.80
2023-01-30T03:41:07.470Z,29.45
2023-01-30T03:43:35.024Z,28.40
2023-01-30T03:46:03.366Z,32.60
2023-01-30T03:48:30.086Z,36.60
2023-01-30T03:50:56.697Z,29.00
2023-01-30T03:53:23.443Z,34.83
2023-01-30T03:55:50.297Z,31.63
2023-01-30T03:58:21.900Z,31.50
2023-01-30T04:00:48.578Z,29.80
2023-01-30T04:03:15.771Z,30.08
2023-01-30T04:05:43.844Z,32.85
2023-01-30T04:08:11.077Z,31.17
2023-01-30T04:10:38.180Z,38.08
2023-01-30T04:13:05.214Z,28.67
2023-01-30T04:15:32.576Z,31.00
2023-01-30T04:18:17.632Z,29.98
2023-01-30T04:20:56.314Z,31.48
2023-01-30T04:23:30.062Z,33.78
2023-01-30T04:25:57.375Z,31.75
2023-01-30T04:28:25.856Z,30.58
2023-01-30T04:30:53.991Z,32.13
2023-01-30T04:33:41.699Z,30.30
2023-01-30T04:36:10.476Z,29.80
2023-01-30T04:38:38.588Z,29.33
2023-01-30T04:41:06.854Z,33.08
2023-01-30T04:43:37.512Z,31.58
2023-01-30T04:46:23.370Z,41.17
2023-01-30T04:48:50.062Z,34.08
2023-01-30T04:51:16.773Z,28.58
2023-01-30T04:53:43.440Z,31.52
2023-01-30T04:56:10.785Z,37.42
2023-01-30T04:58:37.402Z,26.92
2023-01-30T05:01:29.396Z,36.05
2023-01-30T05:03:56.165Z,33.25
2023-01-30T05:06:23.524Z,31.65
2023-01-30T05:08:55.845Z,31.15
2023-01-30T05:11:24.945Z,35.45
2023-01-30T05:13:52.101Z,32.85
2023-01-30T05:16:20.941Z,32.17
2023-01-30T05:18:47.848Z,29.50
2023-01-30T05:21:18.583Z,30.15
2023-01-30T05:23:45.859Z,29.60
2023-01-30T05:26:14.762Z,28.67
2023-01-30T05:28:42.408Z,28.98
2023-01-30T05:31:13.164Z,27.75
2023-01-30T05:33:41.000Z,30.20
2023-01-30T05:36:13.542Z,28.30
2023-01-30T05:38:42.148Z,29.52
2023-01-30T05:41:10.141Z,29.10
2023-01-30T05:43:36.866Z,27.33
2023-01-30T05:46:06.601Z,31.15
2023-01-30T05:48:34.001Z,26.83
2023-01-30T05:51:00.747Z,24.08
2023-01-30T05:53:30.810Z,27.70
2023-01-30T05:55:59.831Z,23.15
2023-01-30T05:58:27.836Z,26.63
2023-01-30T06:00:55.261Z,25.85
2023-01-30T06:03:21.915Z,22.48
2023-01-30T06:05:48.513Z,27.60
2023-01-30T06:08:15.161Z,26.50
2023-01-30T06:10:41.807Z,21.35
2023-01-30T06:13:10.957Z,24.38
2023-01-30T06:15:38.095Z,22.60
2023-01-30T06:18:04.962Z,22.63
2023-01-30T06:20:31.793Z,26.48
2023-01-30T06:22:58.450Z,26.30
2023-01-30T06:25:25.107Z,18.65
2023-01-30T06:27:51.723Z,20.75
2023-01-30T06:30:18.742Z,21.10
2023-01-30T06:35:42.483Z,20.90
2023-01-30T06:38:11.429Z,16.00
2023-01-30T06:40:38.671Z,18.52
2023-01-30T06:43:05.659Z,14.02
2023-01-30T06:45:32.960Z,12.55
2023-01-30T06:47:59.621Z,11.57
2023-01-30T06:50:28.868Z,13.43
2023-01-30T06:52:56.511Z,6.95
2023-01-30T06:55:26.698Z,9.27
2023-01-30T06:58:06.899Z,7.30
2023-01-30T07:00:34.518Z,9.93
2023-01-30T07:03:01.571Z,12.23
2023-01-30T07:05:31.776Z,7.15
2023-01-30T07:07:58.406Z,6.30
2023-01-30T07:10:26.163Z,10.75
2023-01-30T07:12:53.475Z,8.57
2023-01-30T07:15:20.573Z,8.02
2023-01-30T07:17:47.461Z,10.55
2023-01-30T07:20:14.272Z,6.15
2023-01-30T07:22:40.912Z,10.18
2023-01-30T07:25:08.648Z,8.23
2023-01-30T07:27:35.328Z,7.07
2023-01-30T07:30:02.123Z,11.93
2023-01-30T07:32:28.729Z,10.70
2023-01-30T07:34:55.385Z,6.25
2023-01-30T07:37:22.077Z,9.02
2023-01-30T07:39:48.729Z,7.22
2023-01-30T07:42:15.342Z,7.43
2023-01-30T07:44:41.959Z,8.23
2023-01-30T07:47:08.793Z,11.15
2023-01-30T07:49:35.442Z,11.48
2023-01-30T07:52:02.063Z,6.40
2023-01-30T07:54:28.690Z,13.48
2023-01-30T07:56:55.370Z,9.73
2023-01-30T07:59:22.007Z,8.00
2023-01-30T08:01:48.643Z,10.32
2023-01-30T08:04:15.318Z,7.13
2023-01-30T08:06:42.301Z,13.50
2023-01-30T08:09:09.032Z,11.50
2023-01-30T08:11:35.746Z,13.63
2023-01-30T08:14:02.586Z,12.18
2023-01-30T08:16:32.050Z,13.85
2023-01-30T08:18:59.059Z,9.85
2023-01-30T08:21:25.751Z,9.85
2023-01-30T08:23:52.415Z,15.02
2023-01-30T08:26:19.096Z,10.68
2023-01-30T08:28:45.799Z,11.65
2023-01-30T08:31:14.066Z,15.20
2023-01-30T08:33:40.905Z,13.57
2023-01-30T08:36:08.272Z,10.85
2023-01-30T08:38:34.955Z,13.82
2023-01-30T08:41:04.660Z,12.75
2023-01-30T08:43:31.308Z,12.02
2023-01-30T08:45:57.979Z,13.90
2023-01-30T08:48:24.721Z,15.15
2023-01-30T08:50:56.125Z,12.43
2023-01-30T08:53:23.128Z,11.38
2023-01-30T08:55:53.910Z,8.48
2023-01-30T08:58:23.354Z,10.68
2023-01-30T09:00:50.467Z,6.05
2023-01-30T09:03:18.512Z,10.98
2023-01-30T09:05:45.765Z,8.82
2023-01-30T09:08:13.973Z,10.15
2023-01-30T09:10:40.622Z,4.63
2023-01-30T09:13:10.123Z,7.20
2023-01-30T09:15:36.941Z,11.63
2023-01-30T09:18:04.993Z,14.85
2023-01-30T09:20:32.206Z,3.80
2023-01-30T09:22:59.553Z,7.88
2023-01-30T09:25:26.195Z,5.60
2023-01-30T09:27:52.863Z,13.05
2023-01-30T09:30:20.173Z,6.25
2023-01-30T09:32:48.292Z,17.33
2023-01-30T09:35:15.210Z,8.77
2023-01-30T09:37:53.620Z,3.53
2023-01-30T09:40:32.603Z,7.30
2023-01-30T09:43:59.673Z,5.53
2023-01-30T09:47:03.884Z,6.30
2023-01-30T09:49:56.889Z,5.82
2023-01-30T09:53:03.025Z,14.20
2023-01-30T09:55:39.153Z,5.20
2023-01-30T09:58:06.319Z,11.93
2023-01-30T10:00:44.436Z,7.32
2023-01-30T10:03:29.280Z,7.75
2023-01-30T10:06:12.787Z,9.70
2023-01-30T10:08:42.218Z,10.77
2023-01-30T10:11:50.996Z,12.07
2023-01-30T10:14:54.654Z,10.68
2023-01-30T10:17:45.155Z,14.85
2023-01-30T10:20:45.897Z,14.40
2023-01-30T10:23:49.668Z,13.98
2023-01-30T10:26:23.093Z,5.47
2023-01-30T10:29:07.603Z,14.32
2023-01-30T10:32:03.397Z,13.38
2023-01-30T10:34:41.703Z,19.10
2023-01-30T10:37:26.440Z,14.63
2023-01-30T10:40:22.822Z,11.70
2023-01-30T10:42:59.915Z,17.13
2023-01-30T10:45:44.469Z,8.98
2023-01-30T10:48:43.780Z,20.83
2023-01-30T10:52:03.024Z,16.38
2023-01-30T10:55:04.726Z,14.85
2023-01-30T10:57:53.287Z,14.55
2023-01-30T11:00:30.468Z,19.33
2023-01-30T11:03:15.053Z,17.35
2023-01-30T11:06:01.523Z,15.52
2023-01-30T11:08:35.778Z,12.07
2023-01-30T11:11:22.300Z,23.40
2023-01-30T11:13:48.951Z,15.18
2023-01-30T11:16:15.927Z,13.93
2023-01-30T11:21:43.934Z,13.75
2023-01-30T11:24:40.807Z,10.55
2023-01-30T11:27:19.421Z,20.30
2023-01-30T11:29:47.797Z,13.60
2023-01-30T11:32:29.076Z,12.23
2023-01-30T11:35:25.222Z,20.05
2023-01-30T11:37:53.429Z,19.50
2023-01-30T11:40:31.075Z,13.48
2023-01-30T11:43:10.881Z,14.10
2023-01-30T11:45:48.729Z,7.80
2023-01-30T11:48:33.543Z,17.08
2023-01-30T11:51:11.093Z,14.82
2023-01-30T11:53:47.530Z,13.50
2023-01-30T11:56:22.561Z,13.00
2023-01-30T11:59:01.749Z,24.13
2023-01-30T12:01:33.311Z,9.30
2023-01-30T12:04:01.149Z,13.70
2023-01-30T12:06:34.349Z,12.25
2023-01-30T12:09:01.307Z,10.38
2023-01-30T12:11:44.829Z,12.73
2023-01-30T12:14:21.165Z,14.27
2023-01-30T12:17:35.010Z,14.30
2023-01-30T12:20:58.295Z,15.55
2023-01-30T12:23:42.339Z,10.40
2023-01-30T12:26:27.671Z,17.90
2023-01-30T12:29:06.391Z,10.18
2023-01-30T12:31:46.890Z,14.13
2023-01-30T12:34:13.669Z,17.23
2023-01-30T12:36:40.256Z,11.52
2023-01-30T12:39:35.850Z,14.85
2023-01-30T12:42:47.744Z,17.63
2023-01-30T12:45:26.372Z,19.23
2023-01-30T12:48:31.344Z,11.30
2023-01-30T12:51:49.179Z,12.88
2023-01-30T12:54:37.652Z,14.30
2023-01-30T12:58:02.327Z,11.25
2023-01-30T13:00:38.170Z,13.05
2023-01-30T13:06:10.630Z,10.98
2023-01-30T13:12:10.102Z,13.65
2023-01-30T13:15:02.207Z,8.55
2023-01-30T13:17:48.975Z,9.02
2023-01-30T13:20:43.583Z,13.23
2023-01-30T13:23:29.450Z,10.50
2023-01-30T13:26:23.488Z,16.77
2023-01-30T13:28:57.983Z,10.35
2023-01-30T13:31:29.694Z,16.02
2023-01-30T13:34:15.985Z,11.80
2023-01-30T13:37:10.755Z,9.50
2023-01-30T13:40:17.716Z,16.40
2023-01-30T13:43:02.164Z,16.23
2023-01-30T13:45:34.753Z,15.50
2023-01-30T13:48:57.247Z,6.43
2023-01-30T13:51:32.812Z,11.70
2023-01-30T13:54:29.227Z,13.77
2023-01-30T13:56:55.809Z,15.70
2023-01-30T13:59:48.123Z,12.02
2023-01-30T14:02:21.924Z,8.55
2023-01-30T14:04:58.302Z,11.20
2023-01-30T14:07:45.171Z,10.80
2023-01-30T14:10:17.718Z,14.23
2023-01-30T14:12:53.405Z,9.20
2023-01-30T14:15:29.124Z,11.27
2023-01-30T14:20:33.845Z,14.52
2023-01-30T14:23:28.527Z,14.80
2023-01-30T14:25:58.920Z,22.27
2023-01-30T14:28:28.459Z,16.77
2023-01-30T14:31:01.561Z,9.63
2023-01-30T14:33:32.810Z,15.68
2023-01-30T14:36:02.168Z,14.68
2023-01-30T14:38:37.473Z,14.80
2023-01-30T14:41:04.063Z,23.92
2023-01-30T14:43:49.660Z,17.88
2023-01-30T14:46:17.532Z,13.40
2023-01-30T14:49:05.526Z,23.52
2023-01-30T14:51:49.600Z,20.85
2023-01-30T14:54:16.195Z,13.15
2023-01-30T14:56:58.656Z,15.85
2023-01-30T15:00:11.470Z,16.40
2023-01-30T15:02:53.627Z,18.73
2023-01-30T15:05:27.443Z,10.35
2023-01-30T15:08:05.438Z,23.30
2023-01-30T15:10:53.283Z,15.75
2023-01-30T15:13:46.314Z,17.60
2023-01-30T15:17:02.932Z,22.20
2023-01-30T15:20:16.415Z,21.58
2023-01-30T15:23:08.549Z,11.70
2023-01-30T15:26:21.588Z,14.43
2023-01-30T15:29:28.335Z,20.25
2023-01-30T15:32:01.884Z,20.23
2023-01-30T15:34:31.604Z,13.00
2023-01-30T15:36:58.567Z,21.67
2023-01-30T15:39:28.241Z,17.95
2023-01-30T15:42:06.652Z,17.40
2023-01-30T15:44:42.203Z,13.90
2023-01-30T15:47:50.593Z,11.45
2023-01-30T15:50:18.610Z,18.20
2023-01-30T15:52:51.528Z,21.25
2023-01-30T15:55:28.911Z,20.40
2023-01-30T15:58:00.486Z,17.35
2023-01-30T16:00:37.073Z,21.52
2023-01-30T16:03:10.623Z,22.33
2023-01-30T16:05:37.317Z,19.73
2023-01-30T16:08:19.870Z,20.40
2023-01-30T16:10:46.783Z,19.27
2023-01-30T16:13:13.435Z,20.90
2023-01-30T16:16:18.680Z,16.98
2023-01-30T16:18:57.248Z,19.08
2023-01-30T16:21:37.512Z,17.02
2023-01-30T16:24:17.089Z,17.88
2023-01-30T16:26:50.223Z,15.02
2023-01-30T16:29:25.763Z,22.42
2023-01-30T16:31:55.336Z,14.32
2023-01-30T16:34:36.425Z,25.58
2023-01-30T16:37:25.071Z,18.42
2023-01-30T16:40:15.903Z,18.65
2023-01-30T16:42:57.809Z,13.75
2023-01-30T16:45:36.598Z,26.58
2023-01-30T16:48:19.324Z,20.05
2023-01-30T16:50:48.918Z,19.23
2023-01-30T16:53:20.519Z,12.77
2023-01-30T16:56:04.051Z,15.20
2023-01-30T16:58:34.169Z,16.25
2023-01-30T17:01:03.959Z,19.52
2023-01-30T17:04:00.533Z,21.95
2023-01-30T17:06:42.969Z,19.38
2023-01-30T17:09:45.916Z,14.80
2023-01-30T17:12:28.181Z,18.58
2023-01-30T17:15:09.948Z,23.83
2023-01-30T17:17:36.671Z,13.52
2023-01-30T17:20:04.340Z,21.67
2023-01-30T17:22:31.765Z,16.40
2023-01-30T17:25:18.681Z,16.05
2023-01-30T17:27:45.384Z,13.63
2023-01-30T17:30:18.371Z,18.63
2023-01-30T17:32:45.189Z,19.83
2023-01-30T17:35:12.334Z,18.42
2023-01-30T17:37:38.967Z,16.67
2023-01-30T17:40:24.670Z,16.83
2023-01-30T17:42:51.301Z,18.05
2023-01-30T17:45:18.255Z,13.95
2023-01-30T17:47:45.079Z,15.57
2023-01-30T17:50:13.713Z,18.02
2023-01-30T17:52:41.787Z,17.08
2023-01-30T17:55:13.139Z,16.77
2023-01-30T17:57:43.111Z,13.10
2023-01-30T18:00:17.213Z,15.75
2023-01-30T18:02:44.240Z,16.95
2023-01-30T18:05:11.762Z,17.48
2023-01-30T18:07:39.450Z,20.98
2023-01-30T18:10:07.827Z,19.95
2023-01-30T18:12:34.449Z,12.82
2023-01-30T18:15:01.088Z,21.27
2023-01-30T18:17:28.481Z,17.67
2023-01-30T18:19:56.122Z,21.33
2023-01-30T18:22:22.798Z,20.83
2023-01-30T18:24:49.476Z,23.83
2023-01-30T18:27:16.126Z,22.52
2023-01-30T18:29:42.778Z,14.93
2023-01-30T18:32:09.397Z,21.08
2023-01-30T18:34:37.532Z,19.95
2023-01-30T18:37:04.264Z,25.35
2023-01-30T18:39:32.029Z,18.65
2023-01-30T18:41:59.006Z,19.10
2023-01-30T18:44:25.634Z,11.77
2023-01-30T18:46:52.290Z,26.25
2023-01-30T18:49:18.949Z,27.27
2023-01-30T18:51:45.745Z,26.45
2023-01-30T18:54:12.526Z,24.23
2023-01-30T18:56:39.367Z,20.15
2023-01-30T18:59:07.031Z,21.25
2023-01-30T19:01:38.645Z,14.27
2023-01-30T19:04:08.140Z,23.63
2023-01-30T19:06:38.291Z,26.65
2023-01-30T19:09:05.900Z,16.65
2023-01-30T19:11:51.353Z,23.58
2023-01-30T19:14:18.004Z,25.90
2023-01-30T19:16:44.775Z,13.60
2023-01-30T19:19:11.440Z,16.58
2023-01-30T19:21:38.278Z,20.88
2023-01-30T19:24:13.328Z,23.83
2023-01-30T19:26:40.462Z,24.63
2023-01-30T19:29:07.550Z,18.02
2023-01-30T19:31:34.356Z,18.42
2023-01-30T19:34:04.620Z,11.38
2023-01-30T19:36:32.740Z,19.73
2023-01-30T19:39:01.639Z,23.20
2023-01-30T19:41:34.503Z,29.08
2023-01-30T19:44:03.945Z,26.80
2023-01-30T19:46:31.131Z,29.20
2023-01-30T19:48:58.089Z,33.10
2023-01-30T19:51:25.949Z,26.52
2023-01-30T19:53:59.417Z,28.85
2023-01-30T19:56:27.937Z,26.98
2023-01-30T19:58:57.267Z,23.20
2023-01-30T20:01:27.714Z,27.70
2023-01-30T20:03:54.470Z,30.88
2023-01-30T20:06:21.033Z,36.38
2023-01-30T20:08:52.982Z,27.25
2023-01-30T20:11:23.271Z,26.30
2023-01-30T20:13:50.875Z,21.35
2023-01-30T20:16:21.533Z,16.85
2023-01-30T20:18:55.738Z,27.30
2023-01-30T20:21:23.341Z,25.52
2023-01-30T20:23:50.899Z,24.73
2023-01-30T20:26:21.802Z,30.33
2023-01-30T20:28:49.251Z,24.42
2023-01-30T20:31:22.992Z,22.45
2023-01-30T20:33:50.488Z,37.20
2023-01-30T20:36:19.939Z,35.20
2023-01-30T20:38:48.963Z,35.78
2023-01-30T20:41:19.957Z,27.92
2023-01-30T20:43:50.954Z,27.23
2023-01-30T20:46:22.751Z,24.73
2023-01-30T20:48:54.116Z,22.08
2023-01-30T20:51:28.430Z,22.20
2023-01-30T20:54:03.009Z,21.38
2023-01-30T20:56:50.929Z,25.20
2023-01-30T20:59:24.109Z,20.73
2023-01-30T21:01:52.377Z,28.23
2023-01-30T21:04:20.410Z,12.27
2023-01-30T21:06:47.362Z,22.85
2023-01-30T21:09:23.059Z,18.85
2023-01-30T21:11:52.456Z,20.20
2023-01-30T21:14:19.372Z,18.42
2023-01-30T21:16:46.774Z,11.27
2023-01-30T21:19:17.386Z,18.35
2023-01-30T21:21:54.472Z,15.20
2023-01-30T21:24:28.190Z,11.43
2023-01-30T21:26:56.207Z,16.98
2023-01-30T21:29:25.654Z,24.20
2023-01-30T21:31:53.321Z,18.67
2023-01-30T21:34:20.046Z,20.27
2023-01-30T21:37:06.790Z,24.58
2023-01-30T21:39:52.292Z,24.13
2023-01-30T21:42:37.853Z,14.27
2023-01-30T21:45:06.735Z,19.63
2023-01-30T21:47:33.497Z,18.48
2023-01-30T21:50:00.131Z,28.17
2023-01-30T21:52:26.782Z,22.98
2023-01-30T21:54:53.415Z,22.33
2023-01-30T21:57:20.140Z,26.55
2023-01-30T21:59:46.853Z,21.60
2023-01-30T22:02:13.511Z,29.75
2023-01-30T22:04:40.197Z,17.00
2023-01-30T22:07:07.074Z,20.55
2023-01-30T22:09:33.845Z,12.23
2023-01-30T22:12:00.491Z,25.13
2023-01-30T22:14:27.168Z,23.75
2023-01-30T22:16:53.829Z,19.75
2023-01-30T22:19:20.712Z,22.50
2023-01-30T22:21:47.372Z,23.90
2023-01-30T22:24:14.061Z,21.52
2023-01-30T22:26:40.913Z,29.55
2023-01-30T22:29:07.723Z,26.05
2023-01-30T22:31:38.547Z,28.23
2023-01-30T22:34:05.307Z,20.30
2023-01-30T22:36:33.759Z,15.93
2023-01-30T22:39:01.333Z,16.38
2023-01-30T22:41:31.700Z,25.02
2023-01-30T22:44:00.159Z,19.63
2023-01-30T22:46:37.415Z,21.60
2023-01-30T22:49:06.515Z,18.45
2023-01-30T22:51:41.000Z,32.38
2023-01-30T22:54:15.974Z,20.15
2023-01-30T22:56:46.898Z,26.83
2023-01-30T22:59:13.948Z,22.42
2023-01-30T23:01:46.620Z,21.83
2023-01-30T23:04:17.739Z,23.48
2023-01-30T23:06:45.382Z,30.95
2023-01-30T23:09:16.885Z,18.30
2023-01-30T23:12:10.129Z,27.17
2023-01-30T23:14:38.142Z,14.60
2023-01-30T23:17:26.010Z,22.58
2023-01-30T23:19:54.272Z,20.13
2023-01-30T23:22:21.708Z,27.98
2023-01-30T23:24:48.679Z,25.38
2023-01-30T23:27:15.485Z,20.92
2023-01-30T23:29:42.084Z,33.30
2023-01-30T23:32:08.802Z,20.30
2023-01-30T23:34:35.659Z,26.65
2023-01-30T23:37:02.351Z,23.77
2023-01-30T23:39:29.026Z,26.00
2023-01-30T23:41:55.623Z,24.55
2023-01-30T23:44:22.439Z,17.75
2023-01-30T23:46:49.077Z,20.10
2023-01-30T23:49:15.881Z,33.63
2023-01-30T23:51:44.623Z,20.88
2023-01-30T23:54:13.123Z,20.52
2023-01-30T23:56:43.769Z,23.42
2023-01-30T23:59:13.006Z,17.35
